Time;durP1;ratioP1;P1;durP2;ratioP2;P2;SDS_P1;SDS_P2;PMS_P1;PMS_P2;Temp;Humidity;BMP_temperature;BMP_pressure;BME280_temperature;BME280_humidity;BME280_pressure;Samples;Min_cycle;Max_cycle;Signal;HPM_P1;HPM_P2
2021/10/29 00:00:59;;;;;;;4.75;2.00;;;15.00;1.00;;;;;;5096178;28;20043;-75
2021/10/29 00:03:26;;;;;;;4.45;1.75;;;14.90;1.00;;;;;;5096532;28;20463;-75
2021/10/29 00:05:52;;;;;;;8.07;1.92;;;15.00;1.00;;;;;;5096110;28;20040;-75
2021/10/29 00:08:18;;;;;;;4.18;1.67;;;15.00;1.00;;;;;;5096695;28;20032;-75
2021/10/29 00:10:44;;;;;;;10.90;2.03;;;15.00;1.00;;;;;;5096394;28;20069;-75
2021/10/29 00:13:10;;;;;;;5.38;1.50;;;15.00;1.00;;;;;;5095830;28;20090;-75
2021/10/29 00:15:38;;;;;;;6.05;2.00;;;14.90;1.00;;;;;;5096362;28;20044;-75
2021/10/29 00:18:04;;;;;;;6.75;1.75;;;15.10;1.00;;;;;;5077742;28;20130;-75
2021/10/29 00:20:30;;;;;;;5.00;1.40;;;15.00;1.00;;;;;;5095947;28;20499;-75
2021/10/29 00:22:56;;;;;;;3.67;1.60;;;15.10;1.00;;;;;;5095936;28;20032;-75
2021/10/29 00:25:22;;;;;;;7.53;1.75;;;15.10;1.00;;;;;;5095735;28;20097;-75
2021/10/29 00:27:48;;;;;;;5.10;1.52;;;15.10;1.00;;;;;;5077965;28;20031;-75
2021/10/29 00:30:14;;;;;;;5.75;1.50;;;15.10;1.00;;;;;;5095823;28;20093;-75
2021/10/29 00:32:40;;;;;;;7.22;2.22;;;15.10;1.00;;;;;;5095713;28;20032;-75
2021/10/29 00:35:07;;;;;;;6.35;1.42;;;15.00;1.00;;;;;;5095779;28;20048;-75
2021/10/29 00:37:38;;;;;;;5.00;1.60;;;15.00;1.00;;;;;;5096028;28;20580;-75
2021/10/29 00:40:10;;;;;;;4.43;1.50;;;15.00;1.00;;;;;;5095662;28;20047;-75
2021/10/29 00:42:37;;;;;;;4.15;1.60;;;15.00;1.00;;;;;;5095880;28;20028;-75
2021/10/29 00:45:05;;;;;;;4.65;1.63;;;14.90;1.00;;;;;;5095769;28;20052;-75
2021/10/29 00:47:31;;;;;;;7.05;1.50;;;14.90;1.00;;;;;;5095633;28;20039;-75
2021/10/29 00:49:57;;;;;;;4.45;1.60;;;14.90;1.00;;;;;;5095265;28;20503;-75
2021/10/29 00:52:23;;;;;;;4.97;1.52;;;14.70;1.00;;;;;;5095656;28;20487;-75
2021/10/29 00:54:49;;;;;;;7.15;2.15;;;14.70;1.00;;;;;;5095758;28;20040;-75
2021/10/29 00:57:15;;;;;;;8.07;1.90;;;14.80;1.00;;;;;;5095355;28;20032;-75
2021/10/29 00:59:42;;;;;;;6.05;1.85;;;14.80;1.00;;;;;;5095301;28;20123;-75
2021/10/29 01:02:08;;;;;;;6.68;1.70;;;14.80;1.00;;;;;;5095074;28;20035;-75
2021/10/29 01:04:34;;;;;;;4.88;1.70;;;14.80;1.00;;;;;;5077307;28;20042;-75
2021/10/29 01:07:00;;;;;;;5.18;1.65;;;14.70;1.00;;;;;;5094976;28;20080;-75
2021/10/29 01:09:26;;;;;;;3.78;1.85;;;14.70;1.00;;;;;;5095274;28;20036;-75
2021/10/29 01:11:52;;;;;;;4.30;1.50;;;14.70;1.00;;;;;;5095311;28;20035;-75
2021/10/29 01:14:18;;;;;;;2.17;1.55;;;14.80;1.00;;;;;;5095642;28;20046;-75
2021/10/29 01:16:44;;;;;;;6.38;2.05;;;14.80;1.00;;;;;;5095093;28;20024;-75
2021/10/29 01:19:10;;;;;;;4.82;1.85;;;14.80;1.00;;;;;;5095512;28;20036;-75
2021/10/29 01:21:37;;;;;;;3.08;1.63;;;14.80;1.00;;;;;;5095195;28;20039;-75
2021/10/29 01:24:03;;;;;;;7.38;1.70;;;14.80;1.00;;;;;;5095115;28;20036;-75
2021/10/29 01:26:29;;;;;;;5.60;1.70;;;14.80;1.00;;;;;;5095062;28;20149;-75
2021/10/29 01:28:56;;;;;;;3.58;1.48;;;14.80;1.00;;;;;;5077015;28;20044;-75
2021/10/29 01:31:23;;;;;;;3.22;1.67;;;14.80;1.00;;;;;;5094546;28;20040;-75
2021/10/29 01:33:49;;;;;;;5.57;1.40;;;14.70;1.00;;;;;;5094665;28;20047;-75
2021/10/29 01:36:15;;;;;;;4.45;1.50;;;14.70;1.00;;;;;;5094941;28;20582;-75
2021/10/29 01:38:43;;;;;;;7.88;1.83;;;14.70;1.00;;;;;;5094813;28;20491;-75
2021/10/29 01:41:10;;;;;;;5.50;1.73;;;14.60;1.00;;;;;;5094764;28;20554;-76
2021/10/29 01:43:40;;;;;;;3.03;1.60;;;14.70;1.00;;;;;;5094780;28;20044;-75
2021/10/29 01:46:06;;;;;;;4.00;1.85;;;14.70;1.00;;;;;;5094615;28;20036;-75
2021/10/29 01:48:32;;;;;;;4.45;1.60;;;14.70;1.00;;;;;;5076603;28;20085;-75
2021/10/29 01:50:58;;;;;;;4.78;1.92;;;14.70;1.00;;;;;;5094411;28;20056;-75
2021/10/29 01:53:24;;;;;;;4.13;1.58;;;14.60;1.00;;;;;;5076805;28;20110;-75
2021/10/29 01:55:50;;;;;;;6.38;1.77;;;14.60;1.00;;;;;;5094417;28;20097;-75
2021/10/29 01:58:16;;;;;;;4.55;1.75;;;14.70;1.00;;;;;;5094399;28;20036;-75
2021/10/29 02:00:42;;;;;;;3.28;1.50;;;14.70;1.00;;;;;;5094925;28;20475;-75
2021/10/29 02:03:08;;;;;;;3.30;1.67;;;14.70;1.00;;;;;;5076335;28;20421;-75
2021/10/29 02:05:35;;;;;;;4.28;1.52;;;14.70;1.00;;;;;;5094129;28;20048;-75
2021/10/29 02:08:01;;;;;;;8.07;2.13;;;14.60;1.00;;;;;;5094334;28;20040;-75
2021/10/29 02:10:27;;;;;;;4.78;1.92;;;14.60;1.00;;;;;;5076353;28;20109;-75
2021/10/29 02:12:52;;;;;;;3.85;2.00;;;14.60;1.00;;;;;;5094184;28;20430;-75
2021/10/29 02:15:18;;;;;;;4.75;1.90;;;14.50;1.00;;;;;;5095037;28;20047;-75
2021/10/29 02:17:44;;;;;;;3.47;1.90;;;14.60;1.00;;;;;;5094321;28;20541;-75
2021/10/29 02:20:10;;;;;;;5.78;2.15;;;14.60;1.00;;;;;;5076576;28;20161;-75
2021/10/29 02:22:36;;;;;;;4.57;1.98;;;14.50;1.00;;;;;;5098500;28;20042;-75
2021/10/29 02:25:03;;;;;;;5.63;2.38;;;14.50;1.00;;;;;;5098229;28;20131;-75
2021/10/29 02:27:29;;;;;;;6.38;2.20;;;14.50;1.00;;;;;;5098894;28;20043;-75
2021/10/29 02:29:55;;;;;;;5.22;2.22;;;14.50;1.00;;;;;;5098471;28;20044;-75
2021/10/29 02:32:21;;;;;;;4.40;1.95;;;14.50;1.00;;;;;;5097951;28;20047;-75
2021/10/29 02:34:47;;;;;;;2.97;1.92;;;14.40;1.00;;;;;;5098129;28;20040;-75
2021/10/29 02:37:12;;;;;;;3.95;1.70;;;14.30;1.00;;;;;;5098075;28;20040;-75
2021/10/29 02:39:39;;;;;;;5.60;1.77;;;14.30;1.00;;;;;;5098208;28;20403;-75
2021/10/29 02:42:05;;;;;;;4.82;1.80;;;14.40;1.00;;;;;;5098449;28;20130;-75
2021/10/29 02:44:31;;;;;;;10.27;6.57;;;14.40;1.00;;;;;;5098136;28;20059;-75
2021/10/29 02:46:57;;;;;;;5.40;2.35;;;14.30;1.00;;;;;;5097652;28;20055;-75
2021/10/29 02:49:23;;;;;;;5.97;2.50;;;14.20;1.00;;;;;;5098192;28;20364;-75
2021/10/29 02:51:49;;;;;;;5.10;1.88;;;14.30;1.00;;;;;;5098082;28;20535;-75
2021/10/29 02:54:15;;;;;;;4.55;2.13;;;14.30;1.00;;;;;;5098242;28;20032;-75
2021/10/29 02:56:41;;;;;;;5.93;1.95;;;14.30;1.00;;;;;;5097851;28;20039;-75
2021/10/29 02:59:07;;;;;;;6.45;2.17;;;14.30;1.00;;;;;;5080645;28;20367;-75
2021/10/29 03:01:32;;;;;;;5.95;1.85;;;14.40;1.00;;;;;;5097718;28;20457;-75
2021/10/29 03:03:58;;;;;;;6.13;2.40;;;14.30;1.00;;;;;;5098091;28;20529;-75
2021/10/29 03:06:24;;;;;;;6.43;2.20;;;14.30;1.00;;;;;;5097647;28;20044;-75
2021/10/29 03:08:50;;;;;;;4.20;1.95;;;14.40;1.00;;;;;;5098183;28;20127;-75
2021/10/29 03:11:16;;;;;;;4.90;2.40;;;14.30;1.00;;;;;;5079471;28;20032;-75
2021/10/29 03:13:41;;;;;;;8.80;2.40;;;14.20;1.00;;;;;;5098024;28;20070;-75
2021/10/29 03:16:07;;;;;;;3.78;2.35;;;14.20;1.00;;;;;;5097444;28;20090;-75
2021/10/29 03:18:33;;;;;;;7.47;2.60;;;14.20;1.00;;;;;;5097747;28;20441;-75
2021/10/29 03:20:59;;;;;;;7.22;2.70;;;14.20;1.00;;;;;;5098066;28;20043;-75
2021/10/29 03:23:25;;;;;;;7.63;2.35;;;14.20;1.00;;;;;;5097797;28;20383;-75
2021/10/29 03:25:51;;;;;;;5.90;2.78;;;14.30;1.00;;;;;;5097639;28;20062;-75
2021/10/29 03:28:17;;;;;;;6.18;2.95;;;14.20;1.00;;;;;;5097639;28;20115;-75
2021/10/29 03:30:43;;;;;;;5.05;2.53;;;14.30;1.00;;;;;;5097454;28;20475;-75
2021/10/29 03:33:09;;;;;;;3.92;2.50;;;14.30;1.00;;;;;;5096939;28;20044;-75
2021/10/29 03:35:36;;;;;;;4.07;2.80;;;14.20;1.00;;;;;;5097254;28;20039;-75
2021/10/29 03:40:49;;;;;;;4.90;2.85;;;14.20;1.00;;;;;;5097347;28;20483;-75
2021/10/29 03:43:28;;;;;;;7.97;3.40;;;14.20;1.00;;;;;;5097177;28;20048;-75
2021/10/29 03:48:36;;;;;;;5.93;3.42;;;14.20;1.00;;;;;;5097091;28;20040;-75
2021/10/29 03:56:17;;;;;;;7.97;3.83;;;14.10;1.00;;;;;;5096785;28;20032;-75
2021/10/29 03:58:44;;;;;;;7.32;3.55;;;14.10;1.00;;;;;;5096771;28;20036;-75
2021/10/29 04:01:10;;;;;;;4.72;3.30;;;14.10;1.00;;;;;;5096819;28;20130;-75
2021/10/29 04:03:36;;;;;;;9.32;3.67;;;14.00;1.00;;;;;;5097182;28;20462;-75
2021/10/29 04:06:02;;;;;;;6.90;3.83;;;14.00;1.00;;;;;;5096807;28;20043;-75
2021/10/29 04:08:28;;;;;;;7.40;3.65;;;14.10;1.00;;;;;;5096801;28;20115;-75
2021/10/29 04:10:56;;;;;;;5.25;3.17;;;14.10;1.00;;;;;;5096359;28;20063;-75
2021/10/29 04:13:22;;;;;;;8.48;3.92;;;14.10;1.00;;;;;;5096761;28;20081;-75
2021/10/29 04:15:47;;;;;;;6.68;3.55;;;14.20;1.00;;;;;;5096267;28;20048;-75
2021/10/29 04:18:14;;;;;;;6.60;3.53;;;14.20;1.00;;;;;;5077852;28;20032;-75
2021/10/29 04:20:39;;;;;;;6.22;3.53;;;14.20;1.00;;;;;;5096046;28;20522;-75
2021/10/29 04:23:06;;;;;;;6.53;3.60;;;14.30;1.00;;;;;;5096217;28;20029;-75
2021/10/29 04:25:33;;;;;;;5.32;3.08;;;14.30;1.00;;;;;;5096110;28;20048;-75
2021/10/29 04:28:00;;;;;;;4.57;3.10;;;14.30;1.00;;;;;;5095903;28;20040;-75
2021/10/29 04:30:29;;;;;;;6.80;3.70;;;14.30;1.00;;;;;;5095838;28;20150;-75
2021/10/29 04:32:57;;;;;;;8.45;3.40;;;14.20;1.00;;;;;;5095652;28;20032;-75
2021/10/29 04:35:24;;;;;;;12.85;3.83;;;14.30;1.00;;;;;;5077810;28;20386;-75
2021/10/29 04:37:50;;;;;;;6.60;3.35;;;14.30;1.00;;;;;;5095860;28;20044;-75
2021/10/29 04:40:16;;;;;;;6.18;3.60;;;14.30;1.00;;;;;;5095588;28;20062;-75
2021/10/29 04:42:42;;;;;;;7.45;4.53;;;14.30;1.00;;;;;;5077711;28;20043;-75
2021/10/29 04:45:09;;;;;;;9.18;3.83;;;14.30;1.00;;;;;;5095234;28;20116;-75
2021/10/29 04:47:35;;;;;;;6.88;3.05;;;14.20;1.00;;;;;;5095318;28;20562;-75
2021/10/29 04:50:02;;;;;;;5.47;3.22;;;14.20;1.00;;;;;;5095448;28;20147;-75
2021/10/29 04:52:28;;;;;;;8.95;3.45;;;14.20;1.00;;;;;;5095696;28;20043;-75
2021/10/29 04:54:54;;;;;;;7.80;3.42;;;14.20;1.00;;;;;;5095926;28;20089;-75
2021/10/29 04:57:20;;;;;;;11.40;3.80;;;14.30;1.00;;;;;;5095468;28;20060;-75
2021/10/29 04:59:46;;;;;;;7.10;3.60;;;14.30;1.00;;;;;;5095988;28;20073;-75
2021/10/29 05:02:12;;;;;;;6.97;3.50;;;14.30;1.00;;;;;;5077167;28;20031;-75
2021/10/29 05:04:38;;;;;;;7.38;3.47;;;14.40;1.00;;;;;;5095206;28;20047;-75
2021/10/29 05:07:04;;;;;;;5.22;2.90;;;14.40;1.00;;;;;;5095178;28;20116;-75
2021/10/29 05:09:30;;;;;;;8.00;3.30;;;14.30;1.00;;;;;;5095746;28;20554;-75
2021/10/29 05:11:56;;;;;;;7.30;3.35;;;14.40;1.00;;;;;;5077152;28;20065;-75
2021/10/29 05:14:22;;;;;;;7.93;3.50;;;14.40;1.00;;;;;;5095027;28;20072;-75
2021/10/29 05:16:50;;;;;;;7.05;3.28;;;14.40;1.00;;;;;;5095089;28;20468;-75
2021/10/29 05:19:16;;;;;;;7.07;3.30;;;14.40;1.00;;;;;;5076713;28;20487;-75
2021/10/29 05:21:42;;;;;;;5.15;3.13;;;14.40;1.00;;;;;;5095243;28;20067;-75
2021/10/29 05:24:08;;;;;;;10.10;3.67;;;14.40;1.00;;;;;;5095053;28;20039;-75
2021/10/29 05:26:34;;;;;;;8.60;3.10;;;14.40;1.00;;;;;;5076823;28;20040;-75
2021/10/29 05:29:00;;;;;;;9.55;3.55;;;14.40;1.00;;;;;;5094849;28;20036;-75
2021/10/29 05:31:25;;;;;;;7.05;3.63;;;14.40;1.00;;;;;;5094781;28;20047;-75
2021/10/29 05:33:51;;;;;;;8.43;3.70;;;14.40;1.00;;;;;;5094813;28;20044;-75
2021/10/29 05:36:17;;;;;;;11.15;3.67;;;14.30;1.00;;;;;;5094920;28;20090;-75
2021/10/29 05:38:43;;;;;;;7.30;3.38;;;14.30;1.00;;;;;;5094834;28;20036;-75
2021/10/29 05:41:11;;;;;;;10.85;3.08;;;14.30;1.00;;;;;;5094570;28;20507;-75
2021/10/29 05:43:37;;;;;;;9.65;3.22;;;14.30;1.00;;;;;;5094562;28;20044;-75
2021/10/29 05:46:03;;;;;;;12.70;3.22;;;14.40;1.00;;;;;;5094207;28;20652;-75
2021/10/29 05:48:29;;;;;;;10.63;3.60;;;14.40;1.00;;;;;;5080964;28;20068;-75
2021/10/29 05:50:56;;;;;;;7.03;2.92;;;14.50;1.00;;;;;;5093916;28;20048;-75
2021/10/29 05:55:57;;;;;;;8.85;3.35;;;14.50;1.00;;;;;;5093356;28;20403;-75
2021/10/29 05:58:23;;;;;;;8.15;3.50;;;14.50;1.00;;;;;;5093476;28;20028;-75
2021/10/29 06:00:50;;;;;;;6.97;3.55;;;14.50;1.00;;;;;;5093733;28;20101;-75
2021/10/29 06:03:16;;;;;;;9.20;3.47;;;14.50;1.00;;;;;;5092584;28;20055;-75
2021/10/29 06:05:41;;;;;;;5.65;3.20;;;14.40;1.00;;;;;;5093978;28;20132;-75
2021/10/29 06:08:07;;;;;;;12.65;3.50;;;14.40;1.00;;;;;;5093594;28;20032;-75
2021/10/29 06:10:33;;;;;;;7.15;3.80;;;14.40;1.00;;;;;;5094252;28;20126;-75
2021/10/29 06:12:59;;;;;;;7.40;3.50;;;14.40;1.00;;;;;;5094314;28;20043;-75
2021/10/29 06:15:25;;;;;;;7.57;3.28;;;14.50;1.00;;;;;;5094503;28;20076;-75
2021/10/29 06:17:51;;;;;;;6.68;3.20;;;14.50;1.00;;;;;;5093776;28;20510;-75
2021/10/29 06:20:17;;;;;;;4.65;3.13;;;14.50;1.00;;;;;;5093737;28;20040;-75
2021/10/29 06:25:13;;;;;;;7.18;3.47;;;14.50;1.00;;;;;;5094067;28;20036;-75
2021/10/29 06:30:06;;;;;;;4.72;3.30;;;14.40;1.00;;;;;;5094385;28;20068;-76
2021/10/29 06:32:32;;;;;;;8.43;3.55;;;14.50;1.00;;;;;;5093793;28;20122;-75
2021/10/29 06:35:01;;;;;;;11.63;4.03;;;14.50;1.00;;;;;;5093559;28;20148;-75
2021/10/29 06:37:34;;;;;;;11.68;4.57;;;14.40;1.00;;;;;;5094282;28;20028;-75
2021/10/29 06:39:59;;;;;;;9.73;4.05;;;14.20;1.00;;;;;;5094298;28;20510;-75
2021/10/29 06:42:30;;;;;;;8.23;3.70;;;14.20;1.00;;;;;;5094087;28;20111;-75
2021/10/29 06:47:48;;;;;;;8.40;4.15;;;14.20;1.00;;;;;;5093522;28;19908;-75
2021/10/29 07:01:23;;;;;;;7.80;3.80;;;14.40;1.00;;;;;;5093697;28;20445;-76
2021/10/29 07:12:09;;;;;;;8.15;3.83;;;14.60;1.00;;;;;;5096758;28;20067;-76
2021/10/29 07:43:03;;;;;;;7.13;3.95;;;15.00;1.00;;;;;;5030206;28;20544;-76
2021/10/29 07:45:29;;;;;;;8.15;3.30;;;15.00;1.00;;;;;;5033847;28;20104;-75
2021/10/29 07:47:56;;;;;;;10.68;4.32;;;15.00;1.00;;;;;;5060015;28;20044;-76
2021/10/29 07:50:23;;;;;;;8.13;3.72;;;15.00;1.00;;;;;;5110019;27;20494;-76
2021/10/29 07:52:51;;;;;;;8.65;3.75;;;15.00;1.00;;;;;;5118141;27;20118;-75
2021/10/29 07:55:19;;;;;;;7.53;3.50;;;15.00;1.00;;;;;;5119744;27;20039;-75
2021/10/29 07:57:46;;;;;;;9.52;3.42;;;15.10;1.00;;;;;;5121522;27;20042;-75
2021/10/29 08:00:15;;;;;;;7.82;3.53;;;15.10;1.00;;;;;;5125200;27;20039;-76
2021/10/29 08:02:49;;;;;;;10.02;4.10;;;15.20;1.00;;;;;;5119354;27;20042;-77
2021/10/29 08:05:15;;;;;;;6.85;4.05;;;15.30;1.00;;;;;;5105899;28;20047;-75
2021/10/29 08:07:41;;;;;;;8.52;4.10;;;15.30;1.00;;;;;;5117395;28;20483;-76
2021/10/29 08:10:10;;;;;;;6.40;3.53;;;15.30;1.00;;;;;;5098879;28;20042;-76
2021/10/29 08:12:37;;;;;;;12.00;3.92;;;15.40;1.00;;;;;;5115940;27;20040;-77
2021/10/29 08:15:05;;;;;;;4.63;3.55;;;15.30;1.00;;;;;;5120078;27;20146;-77
2021/10/29 08:17:33;;;;;;;7.43;3.53;;;15.30;1.00;;;;;;5117211;27;20031;-77
2021/10/29 08:20:00;;;;;;;7.07;3.13;;;15.30;1.00;;;;;;5115596;28;20043;-76
2021/10/29 08:22:26;;;;;;;11.30;3.97;;;15.30;1.00;;;;;;5133130;27;20497;-77
2021/10/29 08:24:52;;;;;;;6.53;3.63;;;15.30;1.00;;;;;;5114585;27;20074;-76
2021/10/29 08:27:18;;;;;;;6.93;3.42;;;15.50;1.00;;;;;;5123754;27;20532;-76
2021/10/29 08:29:44;;;;;;;8.27;3.60;;;15.50;1.00;;;;;;5126242;27;20261;-76
2021/10/29 08:32:43;;;;;;;7.30;3.60;;;15.60;1.00;;;;;;5115173;27;20497;-77
2021/10/29 08:35:17;;;;;;;7.25;4.00;;;15.60;1.00;;;;;;5094662;28;20046;-75
2021/10/29 08:37:47;;;;;;;6.82;3.78;;;15.50;1.00;;;;;;5096212;28;20036;-74
2021/10/29 08:40:16;;;;;;;8.82;3.45;;;15.70;1.00;;;;;;5115451;28;20126;-75
2021/10/29 08:42:45;;;;;;;8.43;3.72;;;16.00;1.00;;;;;;5116596;28;20478;-73
2021/10/29 08:45:14;;;;;;;7.32;3.92;;;16.00;1.00;;;;;;5097859;28;20063;-74
2021/10/29 08:47:41;;;;;;;6.10;3.20;;;15.90;1.00;;;;;;5115542;27;20039;-72
2021/10/29 08:50:10;;;;;;;8.02;3.80;;;16.30;1.00;;;;;;5112975;28;20145;-72
2021/10/29 08:52:38;;;;;;;9.48;3.53;;;16.50;1.00;;;;;;5105469;28;20036;-71
2021/10/29 08:55:07;;;;;;;7.82;3.25;;;16.30;1.00;;;;;;5082178;28;20538;-71
2021/10/29 08:57:35;;;;;;;7.72;3.58;;;16.30;1.00;;;;;;5110267;28;20036;-72
2021/10/29 09:00:06;;;;;;;7.15;4.20;;;16.00;1.00;;;;;;5113286;28;20047;-72
2021/10/29 09:02:35;;;;;;;10.07;3.10;;;15.80;1.00;;;;;;5114340;28;20036;-72
2021/10/29 09:07:38;;;;;;;12.18;3.92;;;15.80;1.00;;;;;;5115250;28;20067;-72
2021/10/29 09:32:32;;;;;;;7.25;3.15;;;16.60;1.00;;;;;;5115110;28;20038;-72
2021/10/29 09:35:10;;;;;;;4.93;3.10;;;16.70;1.00;;;;;;5096423;28;20038;-72
2021/10/29 09:38:03;;;;;;;5.60;3.15;;;16.80;1.00;;;;;;5114868;28;20062;-71
2021/10/29 09:40:32;;;;;;;5.80;3.15;;;16.40;1.00;;;;;;5115005;28;20123;-71
2021/10/29 09:43:10;;;;;;;5.47;3.63;;;16.20;1.00;;;;;;5115206;28;20112;-71
2021/10/29 09:45:38;;;;;;;5.10;3.45;;;15.80;1.00;;;;;;5113850;28;20126;-71
2021/10/29 09:49:05;;;;;;;6.40;3.85;;;15.50;5.60;;;;;;5113133;28;20044;-72
2021/10/29 09:51:08;;;;;;;6.00;3.40;;;15.30;54.70;;;;;;5105788;28;20414;-72
2021/10/29 09:53:38;;;;;;;4.78;4.05;;;15.00;85.70;;;;;;5102317;28;20503;-71
2021/10/29 09:56:16;;;;;;;9.57;4.25;;;14.90;99.90;;;;;;5094456;28;20051;-72
2021/10/29 09:59:01;;;;;;;8.25;4.00;;;14.80;99.90;;;;;;5094358;28;20043;-71
2021/10/29 10:01:37;;;;;;;7.20;4.07;;;14.80;99.90;;;;;;5094870;28;20491;-71
2021/10/29 10:04:04;;;;;;;6.22;3.58;;;14.80;98.40;;;;;;5095089;28;20035;-71
2021/10/29 10:06:33;;;;;;;8.32;3.88;;;14.90;99.90;;;;;;5076560;28;20039;-71
2021/10/29 10:09:01;;;;;;;7.00;3.70;;;15.00;99.40;;;;;;5094024;28;20491;-71
2021/10/29 10:11:29;;;;;;;6.15;3.50;;;15.10;66.20;;;;;;5094535;28;20039;-72
2021/10/29 10:13:57;;;;;;;7.00;3.60;;;15.40;59.70;;;;;;5094706;28;20483;-71
2021/10/29 10:16:27;;;;;;;7.65;4.13;;;15.50;37.50;;;;;;5094098;28;20086;-71
2021/10/29 10:18:55;;;;;;;9.48;3.72;;;15.80;28.80;;;;;;5094050;28;20040;-74
2021/10/29 10:21:24;;;;;;;9.48;3.80;;;16.20;17.90;;;;;;5092992;28;20051;-74
2021/10/29 10:23:53;;;;;;;8.95;3.65;;;16.30;1.00;;;;;;5092560;28;20028;-74
2021/10/29 10:26:33;;;;;;;8.75;3.50;;;16.40;1.00;;;;;;5076248;28;20055;-74
2021/10/29 10:40:27;;;;;;;8.23;3.92;;;17.70;1.00;;;;;;5094017;28;20429;-71
2021/10/29 10:48:44;;;;;;;8.15;3.28;;;18.20;1.00;;;;;;5097998;28;20413;-71
2021/10/29 10:53:55;;;;;;;6.28;3.08;;;19.10;1.00;;;;;;5097904;28;20028;-71
2021/10/29 10:56:38;;;;;;;7.80;3.30;;;19.00;1.00;;;;;;5097832;28;20040;-70
2021/10/29 10:59:35;;;;;;;6.72;3.38;;;18.60;1.00;;;;;;5097641;28;20036;-70
2021/10/29 11:05:16;;;;;;;7.40;3.42;;;18.30;1.00;;;;;;5097419;28;20383;-72
2021/10/29 11:10:14;;;;;;;8.93;3.22;;;18.30;1.00;;;;;;5097338;28;20036;-71
2021/10/29 11:12:40;;;;;;;5.78;2.88;;;18.60;1.00;;;;;;5097649;28;20036;-71
2021/10/29 11:15:10;;;;;;;9.98;3.38;;;18.50;1.00;;;;;;5097642;28;20043;-70
2021/10/29 11:17:46;;;;;;;6.75;3.13;;;18.30;1.00;;;;;;5097474;28;20089;-71
2021/10/29 11:23:17;;;;;;;9.07;2.92;;;17.60;1.00;;;;;;5095848;28;20031;-71
2021/10/29 11:25:52;;;;;;;9.48;3.45;;;17.60;1.00;;;;;;5096873;28;20181;-71
2021/10/29 11:28:22;;;;;;;6.32;3.30;;;17.90;1.00;;;;;;5096803;28;20067;-71
2021/10/29 11:30:48;;;;;;;7.30;3.30;;;18.10;1.00;;;;;;5096825;28;20036;-71
2021/10/29 11:33:17;;;;;;;8.82;3.15;;;17.90;1.00;;;;;;5097056;28;20032;-72
2021/10/29 11:36:35;;;;;;;8.68;3.88;;;17.60;1.00;;;;;;5097253;28;20040;-72
2021/10/29 11:39:05;;;;;;;7.13;3.33;;;17.20;1.00;;;;;;5062793;28;20036;-71
2021/10/29 11:41:33;;;;;;;8.02;3.28;;;17.20;1.00;;;;;;5078738;28;20036;-72
2021/10/29 11:44:10;;;;;;;11.05;4.03;;;17.20;1.00;;;;;;5096832;28;20040;-72
2021/10/29 11:46:37;;;;;;;9.10;3.33;;;17.30;1.00;;;;;;5078357;28;20181;-72
2021/10/29 11:49:07;;;;;;;5.38;2.90;;;17.40;1.00;;;;;;5098872;28;20040;-71
2021/10/29 11:51:35;;;;;;;9.60;3.35;;;17.50;1.00;;;;;;5115902;28;20039;-72
2021/10/29 11:54:19;;;;;;;9.00;3.40;;;17.60;1.00;;;;;;5116192;28;20513;-73
2021/10/29 12:07:26;;;;;;;8.40;3.80;;;17.40;1.00;;;;;;5127044;28;20054;-71
2021/10/29 12:09:56;;;;;;;8.25;3.78;;;17.30;1.00;;;;;;5117140;28;20160;-73
2021/10/29 12:12:26;;;;;;;9.00;3.13;;;17.50;1.00;;;;;;5116835;28;20027;-73
2021/10/29 12:14:55;;;;;;;7.47;3.17;;;17.70;1.00;;;;;;5117250;28;20044;-73
2021/10/29 12:17:30;;;;;;;5.28;2.80;;;17.80;1.00;;;;;;5098774;28;20038;-74
2021/10/29 12:20:08;;;;;;;5.85;3.10;;;17.90;1.00;;;;;;5116180;28;20071;-74
2021/10/29 12:22:38;;;;;;;5.47;2.70;;;18.00;1.00;;;;;;5116248;28;20440;-75
2021/10/29 12:25:31;;;;;;;10.50;3.03;;;17.70;1.00;;;;;;5115034;28;20050;-75
2021/10/29 12:28:07;;;;;;;7.18;3.10;;;17.50;1.00;;;;;;5116076;28;20043;-75
2021/10/29 12:53:22;;;;;;;6.85;2.95;;;17.90;1.00;;;;;;5115686;28;20084;-73
2021/10/29 13:04:20;;;;;;;8.27;3.17;;;17.80;1.00;;;;;;5115813;28;20378;-74
2021/10/29 13:06:49;;;;;;;7.90;3.15;;;17.70;1.00;;;;;;5116018;28;20046;-74
2021/10/29 13:09:19;;;;;;;7.75;3.08;;;17.80;1.00;;;;;;5116181;28;20122;-74
2021/10/29 13:11:53;;;;;;;6.80;2.97;;;17.80;1.00;;;;;;5115858;28;20478;-74
2021/10/29 13:14:31;;;;;;;5.45;3.20;;;17.90;1.00;;;;;;5097215;28;20494;-74
2021/10/29 13:16:59;;;;;;;6.65;2.92;;;17.70;1.00;;;;;;5115763;28;20040;-74
2021/10/29 13:19:35;;;;;;;9.75;3.72;;;17.80;1.00;;;;;;5115692;28;20567;-74
2021/10/29 13:25:10;;;;;;;9.38;2.97;;;18.00;1.00;;;;;;5115552;28;20168;-74
2021/10/29 13:28:02;;;;;;;9.80;3.40;;;18.20;1.00;;;;;;5115218;28;20051;-74
2021/10/29 13:50:18;;;;;;;7.38;3.00;;;17.90;1.00;;;;;;5115302;28;20045;-74
2021/10/29 14:00:34;;;;;;;7.93;3.20;;;18.30;1.00;;;;;;5094466;28;20036;-71
2021/10/29 14:24:36;;;;;;;9.85;3.20;;;16.80;1.00;;;;;;5077818;28;20071;-74
2021/10/29 14:30:06;;;;;;;8.27;3.50;;;17.00;1.00;;;;;;5077721;28;20457;-74
2021/10/29 14:32:45;;;;;;;6.75;3.72;;;17.00;1.00;;;;;;5062824;28;20043;-74
2021/10/29 14:40:41;;;;;;;9.15;3.10;;;17.10;1.00;;;;;;5097543;28;20039;-74
2021/10/29 14:45:53;;;;;;;7.95;3.10;;;17.00;1.00;;;;;;5090403;28;20093;-74
2021/10/29 14:48:44;;;;;;;6.88;3.55;;;17.00;1.00;;;;;;5092554;28;20048;-74
2021/10/29 14:51:17;;;;;;;10.73;4.20;;;16.70;1.00;;;;;;5113518;28;20051;-74
2021/10/29 15:05:13;;;;;;;8.63;3.75;;;16.80;1.00;;;;;;5117630;28;20058;-74
2021/10/29 15:29:16;;;;;;;9.75;4.55;;;16.70;1.00;;;;;;5117342;28;20054;-75
2021/10/29 15:45:25;;;;;;;14.82;5.95;;;16.60;1.00;;;;;;5131041;27;20110;-74
2021/10/29 15:48:10;;;;;;;10.90;4.43;;;16.60;1.00;;;;;;5118419;27;20045;-74
2021/10/29 15:50:36;;;;;;;9.57;4.03;;;16.60;1.00;;;;;;5127622;27;20090;-73
2021/10/29 15:53:04;;;;;;;12.30;4.45;;;16.50;1.00;;;;;;5128203;27;20059;-73
2021/10/29 15:55:41;;;;;;;10.75;3.80;;;16.50;1.00;;;;;;5117008;28;20031;-74
2021/10/29 15:58:31;;;;;;;8.55;3.92;;;16.40;1.00;;;;;;5122424;27;20039;-73
2021/10/29 16:17:05;;;;;;;15.02;3.88;;;16.20;1.00;;;;;;5116245;28;20038;-72
2021/10/29 16:19:32;;;;;;;9.68;3.83;;;16.20;1.00;;;;;;5119385;27;20417;-70
2021/10/29 16:21:59;;;;;;;9.05;4.25;;;16.10;1.00;;;;;;5122176;27;20043;-71
2021/10/29 16:24:25;;;;;;;9.75;3.85;;;16.10;1.70;;;;;;5120183;27;20482;-71
2021/10/29 16:26:53;;;;;;;11.43;3.70;;;16.00;3.40;;;;;;5129119;27;20039;-73
2021/10/29 16:29:23;;;;;;;12.00;3.80;;;16.00;4.20;;;;;;5125872;27;20044;-71
2021/10/29 16:31:49;;;;;;;8.35;3.63;;;15.90;7.10;;;;;;5117880;27;20109;-71
2021/10/29 16:34:15;;;;;;;10.95;4.03;;;15.90;8.10;;;;;;5123226;27;20038;-71
2021/10/29 16:36:41;;;;;;;11.13;4.78;;;15.90;7.30;;;;;;5118627;27;20047;-74
2021/10/29 16:39:08;;;;;;;11.35;4.40;;;15.90;8.70;;;;;;5122724;27;20062;-74
2021/10/29 16:41:34;;;;;;;12.68;4.32;;;15.80;12.00;;;;;;5114148;28;20045;-73
2021/10/29 16:44:00;;;;;;;11.40;4.22;;;15.80;12.70;;;;;;5115622;28;20126;-73
2021/10/29 16:46:26;;;;;;;15.02;8.20;;;15.70;15.40;;;;;;5114191;28;20051;-73
2021/10/29 16:48:52;;;;;;;14.40;4.07;;;15.70;16.30;;;;;;5114544;28;20035;-73
2021/10/29 16:51:20;;;;;;;10.55;4.00;;;15.80;13.20;;;;;;5096492;28;20051;-73
2021/10/29 16:53:46;;;;;;;9.18;4.13;;;15.90;12.90;;;;;;5094759;28;20040;-73
2021/10/29 16:56:12;;;;;;;11.82;4.57;;;15.90;12.10;;;;;;5095345;28;20438;-73
2021/10/29 16:58:42;;;;;;;6.93;3.35;;;15.90;10.60;;;;;;5095645;28;20491;-73
2021/10/29 17:01:08;;;;;;;7.45;4.28;;;15.90;11.00;;;;;;5095191;28;20035;-73
2021/10/29 17:03:34;;;;;;;12.50;4.03;;;15.90;10.40;;;;;;5095417;28;20032;-73
2021/10/29 17:06:00;;;;;;;9.32;4.32;;;15.80;13.10;;;;;;5095223;28;20047;-74
2021/10/29 17:08:26;;;;;;;14.40;4.25;;;15.80;14.40;;;;;;5095305;28;20054;-73
2021/10/29 17:10:52;;;;;;;10.13;4.43;;;15.80;11.70;;;;;;5093331;28;20081;-74
2021/10/29 17:13:18;;;;;;;10.15;4.55;;;15.80;12.30;;;;;;5093493;28;20063;-73
2021/10/29 17:15:44;;;;;;;12.48;4.35;;;15.80;12.20;;;;;;5092904;28;20036;-74
2021/10/29 17:18:11;;;;;;;9.48;4.22;;;15.80;11.00;;;;;;5093325;28;20123;-73
2021/10/29 17:20:37;;;;;;;12.98;3.90;;;15.90;16.50;;;;;;5094158;28;20046;-73
2021/10/29 17:23:04;;;;;;;12.57;4.00;;;15.90;14.70;;;;;;5094681;28;20064;-73
2021/10/29 17:25:31;;;;;;;11.80;4.13;;;15.80;18.10;;;;;;5094888;28;20499;-73
2021/10/29 17:27:58;;;;;;;14.80;4.78;;;15.70;21.00;;;;;;5094627;28;20465;-73
2021/10/29 17:30:24;;;;;;;12.43;4.70;;;15.70;28.30;;;;;;5094792;28;20553;-73
2021/10/29 17:32:50;;;;;;;14.68;4.25;;;15.70;32.30;;;;;;5093999;28;20044;-73
2021/10/29 17:35:18;;;;;;;13.57;4.40;;;15.70;29.80;;;;;;5094670;28;20040;-72
2021/10/29 17:37:45;;;;;;;12.80;4.40;;;15.60;30.00;;;;;;5094418;28;20044;-72
2021/10/29 17:40:14;;;;;;;13.77;4.95;;;15.70;29.80;;;;;;5095483;28;20039;-73
2021/10/29 17:42:51;;;;;;;13.60;4.57;;;15.60;38.00;;;;;;5091333;28;20043;-73
2021/10/29 17:45:31;;;;;;;15.30;4.97;;;15.60;40.00;;;;;;5093850;28;20047;-74
2021/10/29 17:47:59;;;;;;;12.23;4.20;;;15.50;42.40;;;;;;5094918;28;20126;-75
2021/10/29 17:50:37;;;;;;;19.08;4.90;;;15.50;46.50;;;;;;5112666;27;20138;-75